sensor_id;sensor_type;location;lat;lon;timestamp;P1;durP1;ratioP1;P2;durP2;ratioP2
4486;SDS011;2256;48.740;9.106;2023-01-05T00:00:51;1.07;;;0.90;;
4486;SDS011;2256;48.740;9.106;2023-01-05T00:03:19;0.80;;;0.80;;
4486;SDS011;2256;48.740;9.106;2023-01-05T00:05:46;1.13;;;0.73;;
4486;SDS011;2256;48.740;9.106;2023-01-05T00:08:13;0.90;;;0.90;;
4486;SDS011;2256;48.740;9.106;2023-01-05T00:10:39;0.93;;;0.90;;
4486;SDS011;2256;48.740;9.106;2023-01-05T00:13:25;1.10;;;1.00;;
4486;SDS011;2256;48.740;9.106;2023-01-05T00:16:11;0.70;;;0.70;;
4486;SDS011;2256;48.740;9.106;2023-01-05T00:18:56;0.80;;;0.80;;
4486;SDS011;2256;48.740;9.106;2023-01-05T00:21:40;0.73;;;0.73;;
4486;SDS011;2256;48.740;9.106;2023-01-05T00:24:25;0.80;;;0.80;;
4486;SDS011;2256;48.740;9.106;2023-01-05T00:26:53;0.73;;;0.73;;
4486;SDS011;2256;48.740;9.106;2023-01-05T00:29:21;2.80;;;0.90;;
4486;SDS011;2256;48.740;9.106;2023-01-05T00:31:51;0.80;;;0.80;;
4486;SDS011;2256;48.740;9.106;2023-01-05T00:34:18;1.00;;;0.90;;
4486;SDS011;2256;48.740;9.106;2023-01-05T00:36:44;1.00;;;1.00;;
4486;SDS011;2256;48.740;9.106;2023-01-05T00:39:11;1.37;;;1.10;;
4486;SDS011;2256;48.740;9.106;2023-01-05T00:41:38;0.93;;;0.90;;
4486;SDS011;2256;48.740;9.106;2023-01-05T00:44:05;0.80;;;0.80;;
4486;SDS011;2256;48.740;9.106;2023-01-05T00:46:33;0.80;;;0.80;;
4486;SDS011;2256;48.740;9.106;2023-01-05T00:49:00;1.10;;;0.80;;
4486;SDS011;2256;48.740;9.106;2023-01-05T00:51:27;1.03;;;0.90;;
4486;SDS011;2256;48.740;9.106;2023-01-05T00:53:54;1.00;;;0.87;;
4486;SDS011;2256;48.740;9.106;2023-01-05T00:56:21;1.00;;;0.90;;
4486;SDS011;2256;48.740;9.106;2023-01-05T00:58:47;0.73;;;0.73;;
4486;SDS011;2256;48.740;9.106;2023-01-05T01:01:18;0.70;;;0.70;;
4486;SDS011;2256;48.740;9.106;2023-01-05T01:03:46;1.27;;;0.90;;
4486;SDS011;2256;48.740;9.106;2023-01-05T01:06:13;1.10;;;0.80;;
4486;SDS011;2256;48.740;9.106;2023-01-05T01:08:40;0.90;;;0.90;;
4486;SDS011;2256;48.740;9.106;2023-01-05T01:11:07;1.73;;;0.80;;
4486;SDS011;2256;48.740;9.106;2023-01-05T01:13:35;0.80;;;0.80;;
4486;SDS011;2256;48.740;9.106;2023-01-05T01:16:06;0.80;;;0.80;;
4486;SDS011;2256;48.740;9.106;2023-01-05T01:18:33;1.37;;;0.73;;
4486;SDS011;2256;48.740;9.106;2023-01-05T01:21:02;1.00;;;0.90;;
4486;SDS011;2256;48.740;9.106;2023-01-05T01:23:29;0.73;;;0.73;;
4486;SDS011;2256;48.740;9.106;2023-01-05T01:25:58;1.13;;;0.80;;
4486;SDS011;2256;48.740;9.106;2023-01-05T01:28:28;0.60;;;0.60;;
4486;SDS011;2256;48.740;9.106;2023-01-05T01:30:55;1.00;;;0.90;;
4486;SDS011;2256;48.740;9.106;2023-01-05T01:33:22;0.70;;;0.70;;
4486;SDS011;2256;48.740;9.106;2023-01-05T01:35:48;0.67;;;0.67;;
4486;SDS011;2256;48.740;9.106;2023-01-05T01:38:17;0.70;;;0.70;;
4486;SDS011;2256;48.740;9.106;2023-01-05T01:40:44;0.70;;;0.70;;
4486;SDS011;2256;48.740;9.106;2023-01-05T01:43:13;3.83;;;0.80;;
4486;SDS011;2256;48.740;9.106;2023-01-05T01:45:40;0.90;;;0.80;;
4486;SDS011;2256;48.740;9.106;2023-01-05T01:48:08;0.70;;;0.70;;
4486;SDS011;2256;48.740;9.106;2023-01-05T01:50:37;0.70;;;0.70;;
4486;SDS011;2256;48.740;9.106;2023-01-05T01:53:10;0.80;;;0.80;;
4486;SDS011;2256;48.740;9.106;2023-01-05T01:55:41;0.63;;;0.63;;
4486;SDS011;2256;48.740;9.106;2023-01-05T01:58:10;0.63;;;0.63;;
4486;SDS011;2256;48.740;9.106;2023-01-05T02:00:41;2.33;;;0.70;;
4486;SDS011;2256;48.740;9.106;2023-01-05T02:03:08;0.70;;;0.70;;
4486;SDS011;2256;48.740;9.106;2023-01-05T02:05:35;0.60;;;0.60;;
4486;SDS011;2256;48.740;9.106;2023-01-05T02:08:03;0.67;;;0.67;;
4486;SDS011;2256;48.740;9.106;2023-01-05T02:10:37;0.60;;;0.60;;
4486;SDS011;2256;48.740;9.106;2023-01-05T02:13:20;0.70;;;0.70;;
4486;SDS011;2256;48.740;9.106;2023-01-05T02:15:57;0.70;;;0.70;;
4486;SDS011;2256;48.740;9.106;2023-01-05T02:18:35;0.60;;;0.60;;
4486;SDS011;2256;48.740;9.106;2023-01-05T02:21:17;0.63;;;0.63;;
4486;SDS011;2256;48.740;9.106;2023-01-05T02:23:54;1.00;;;0.90;;
4486;SDS011;2256;48.740;9.106;2023-01-05T02:26:55;0.60;;;0.60;;
4486;SDS011;2256;48.740;9.106;2023-01-05T02:29:48;0.70;;;0.70;;
4486;SDS011;2256;48.740;9.106;2023-01-05T02:32:38;0.60;;;0.60;;
4486;SDS011;2256;48.740;9.106;2023-01-05T02:35:16;0.80;;;0.80;;
4486;SDS011;2256;48.740;9.106;2023-01-05T02:37:52;0.60;;;0.60;;
4486;SDS011;2256;48.740;9.106;2023-01-05T02:40:28;0.70;;;0.70;;
4486;SDS011;2256;48.740;9.106;2023-01-05T02:42:58;0.60;;;0.60;;
4486;SDS011;2256;48.740;9.106;2023-01-05T02:45:26;0.70;;;0.70;;
4486;SDS011;2256;48.740;9.106;2023-01-05T02:47:54;0.60;;;0.60;;
4486;SDS011;2256;48.740;9.106;2023-01-05T02:50:22;0.70;;;0.70;;
4486;SDS011;2256;48.740;9.106;2023-01-05T02:52:55;6.33;;;0.70;;
4486;SDS011;2256;48.740;9.106;2023-01-05T02:55:27;0.60;;;0.60;;
4486;SDS011;2256;48.740;9.106;2023-01-05T02:58:00;0.60;;;0.60;;
4486;SDS011;2256;48.740;9.106;2023-01-05T03:00:32;0.67;;;0.67;;
4486;SDS011;2256;48.740;9.106;2023-01-05T03:03:05;0.70;;;0.70;;
4486;SDS011;2256;48.740;9.106;2023-01-05T03:05:35;0.90;;;0.90;;
4486;SDS011;2256;48.740;9.106;2023-01-05T03:08:06;0.70;;;0.70;;
4486;SDS011;2256;48.740;9.106;2023-01-05T03:10:36;0.60;;;0.60;;
4486;SDS011;2256;48.740;9.106;2023-01-05T03:13:34;0.60;;;0.60;;
4486;SDS011;2256;48.740;9.106;2023-01-05T03:16:08;0.60;;;0.60;;
4486;SDS011;2256;48.740;9.106;2023-01-05T03:18:40;0.60;;;0.60;;
4486;SDS011;2256;48.740;9.106;2023-01-05T03:21:25;2.30;;;0.70;;
4486;SDS011;2256;48.740;9.106;2023-01-05T03:23:53;0.70;;;0.70;;
4486;SDS011;2256;48.740;9.106;2023-01-05T03:26:39;0.70;;;0.70;;
4486;SDS011;2256;48.740;9.106;2023-01-05T03:29:24;1.53;;;0.70;;
4486;SDS011;2256;48.740;9.106;2023-01-05T03:32:12;0.63;;;0.63;;
4486;SDS011;2256;48.740;9.106;2023-01-05T03:35:07;0.60;;;0.60;;
4486;SDS011;2256;48.740;9.106;2023-01-05T03:37:54;0.60;;;0.60;;
4486;SDS011;2256;48.740;9.106;2023-01-05T03:40:27;0.70;;;0.70;;
4486;SDS011;2256;48.740;9.106;2023-01-05T03:42:55;0.70;;;0.70;;
4486;SDS011;2256;48.740;9.106;2023-01-05T03:45:22;0.63;;;0.63;;
4486;SDS011;2256;48.740;9.106;2023-01-05T03:47:51;0.60;;;0.60;;
4486;SDS011;2256;48.740;9.106;2023-01-05T03:50:21;0.70;;;0.60;;
4486;SDS011;2256;48.740;9.106;2023-01-05T03:52:48;2.00;;;0.70;;
4486;SDS011;2256;48.740;9.106;2023-01-05T03:55:14;2.93;;;0.70;;
4486;SDS011;2256;48.740;9.106;2023-01-05T03:57:41;0.60;;;0.60;;
4486;SDS011;2256;48.740;9.106;2023-01-05T04:00:08;0.67;;;0.67;;
4486;SDS011;2256;48.740;9.106;2023-01-05T04:02:36;0.70;;;0.70;;
4486;SDS011;2256;48.740;9.106;2023-01-05T04:05:03;0.70;;;0.70;;
4486;SDS011;2256;48.740;9.106;2023-01-05T04:07:32;0.60;;;0.60;;
4486;SDS011;2256;48.740;9.106;2023-01-05T04:09:58;0.60;;;0.60;;
4486;SDS011;2256;48.740;9.106;2023-01-05T04:12:25;0.63;;;0.60;;
4486;SDS011;2256;48.740;9.106;2023-01-05T04:14:52;0.70;;;0.70;;
4486;SDS011;2256;48.740;9.106;2023-01-05T04:17:19;0.90;;;0.80;;
4486;SDS011;2256;48.740;9.106;2023-01-05T04:19:45;0.60;;;0.60;;
4486;SDS011;2256;48.740;9.106;2023-01-05T04:22:12;0.80;;;0.80;;
4486;SDS011;2256;48.740;9.106;2023-01-05T04:24:40;0.63;;;0.63;;
4486;SDS011;2256;48.740;9.106;2023-01-05T04:27:07;0.73;;;0.73;;
4486;SDS011;2256;48.740;9.106;2023-01-05T04:29:34;0.77;;;0.70;;
4486;SDS011;2256;48.740;9.106;2023-01-05T04:32:01;1.00;;;0.70;;
4486;SDS011;2256;48.740;9.106;2023-01-05T04:34:27;0.60;;;0.60;;
4486;SDS011;2256;48.740;9.106;2023-01-05T04:36:54;0.70;;;0.70;;
4486;SDS011;2256;48.740;9.106;2023-01-05T04:39:21;0.77;;;0.70;;
4486;SDS011;2256;48.740;9.106;2023-01-05T04:41:49;0.70;;;0.70;;
4486;SDS011;2256;48.740;9.106;2023-01-05T04:44:16;0.60;;;0.60;;
4486;SDS011;2256;48.740;9.106;2023-01-05T04:46:43;0.60;;;0.60;;
4486;SDS011;2256;48.740;9.106;2023-01-05T04:49:10;1.07;;;0.80;;
4486;SDS011;2256;48.740;9.106;2023-01-05T04:51:36;0.60;;;0.60;;
4486;SDS011;2256;48.740;9.106;2023-01-05T04:54:03;0.70;;;0.70;;
4486;SDS011;2256;48.740;9.106;2023-01-05T04:56:30;0.60;;;0.60;;
4486;SDS011;2256;48.740;9.106;2023-01-05T04:58:58;0.60;;;0.60;;
4486;SDS011;2256;48.740;9.106;2023-01-05T05:01:24;0.70;;;0.70;;
4486;SDS011;2256;48.740;9.106;2023-01-05T05:03:51;0.63;;;0.63;;
4486;SDS011;2256;48.740;9.106;2023-01-05T05:06:18;0.70;;;0.70;;
4486;SDS011;2256;48.740;9.106;2023-01-05T05:08:45;1.70;;;0.70;;
4486;SDS011;2256;48.740;9.106;2023-01-05T05:11:12;0.70;;;0.70;;
4486;SDS011;2256;48.740;9.106;2023-01-05T05:13:39;0.60;;;0.60;;
4486;SDS011;2256;48.740;9.106;2023-01-05T05:16:07;0.70;;;0.70;;
4486;SDS011;2256;48.740;9.106;2023-01-05T05:18:34;0.70;;;0.70;;
4486;SDS011;2256;48.740;9.106;2023-01-05T05:21:01;0.90;;;0.90;;
4486;SDS011;2256;48.740;9.106;2023-01-05T05:23:28;2.83;;;0.70;;
4486;SDS011;2256;48.740;9.106;2023-01-05T05:25:55;0.70;;;0.70;;
4486;SDS011;2256;48.740;9.106;2023-01-05T05:28:21;1.27;;;1.00;;
4486;SDS011;2256;48.740;9.106;2023-01-05T05:30:52;0.83;;;0.70;;
4486;SDS011;2256;48.740;9.106;2023-01-05T05:33:21;2.40;;;0.60;;
4486;SDS011;2256;48.740;9.106;2023-01-05T05:35:48;0.60;;;0.60;;
4486;SDS011;2256;48.740;9.106;2023-01-05T05:38:15;0.87;;;0.60;;
4486;SDS011;2256;48.740;9.106;2023-01-05T05:40:42;0.67;;;0.67;;
4486;SDS011;2256;48.740;9.106;2023-01-05T05:43:09;0.60;;;0.60;;
4486;SDS011;2256;48.740;9.106;2023-01-05T05:45:35;0.60;;;0.60;;
4486;SDS011;2256;48.740;9.106;2023-01-05T05:48:02;0.70;;;0.70;;
4486;SDS011;2256;48.740;9.106;2023-01-05T05:50:31;0.60;;;0.60;;
4486;SDS011;2256;48.740;9.106;2023-01-05T05:52:58;0.60;;;0.60;;
4486;SDS011;2256;48.740;9.106;2023-01-05T05:55:25;0.77;;;0.70;;
4486;SDS011;2256;48.740;9.106;2023-01-05T05:57:52;0.70;;;0.70;;
4486;SDS011;2256;48.740;9.106;2023-01-05T06:00:18;1.47;;;0.70;;
4486;SDS011;2256;48.740;9.106;2023-01-05T06:02:45;0.60;;;0.60;;
4486;SDS011;2256;48.740;9.106;2023-01-05T06:05:12;2.10;;;0.70;;
4486;SDS011;2256;48.740;9.106;2023-01-05T06:07:40;2.20;;;0.80;;
4486;SDS011;2256;48.740;9.106;2023-01-05T06:10:07;0.63;;;0.63;;
4486;SDS011;2256;48.740;9.106;2023-01-05T06:12:35;1.20;;;1.00;;
4486;SDS011;2256;48.740;9.106;2023-01-05T06:15:01;0.83;;;0.70;;
4486;SDS011;2256;48.740;9.106;2023-01-05T06:17:29;0.80;;;0.77;;
4486;SDS011;2256;48.740;9.106;2023-01-05T06:19:55;1.73;;;0.70;;
4486;SDS011;2256;48.740;9.106;2023-01-05T06:22:22;1.00;;;0.80;;
4486;SDS011;2256;48.740;9.106;2023-01-05T06:24:50;0.73;;;0.67;;
4486;SDS011;2256;48.740;9.106;2023-01-05T06:27:17;0.80;;;0.80;;
4486;SDS011;2256;48.740;9.106;2023-01-05T06:29:44;0.87;;;0.70;;
4486;SDS011;2256;48.740;9.106;2023-01-05T06:32:11;0.70;;;0.70;;
4486;SDS011;2256;48.740;9.106;2023-01-05T06:34:37;0.70;;;0.70;;
4486;SDS011;2256;48.740;9.106;2023-01-05T06:37:04;0.70;;;0.70;;
4486;SDS011;2256;48.740;9.106;2023-01-05T06:39:31;1.07;;;0.80;;
4486;SDS011;2256;48.740;9.106;2023-01-05T06:41:59;1.33;;;0.77;;
4486;SDS011;2256;48.740;9.106;2023-01-05T06:44:26;1.43;;;0.70;;
4486;SDS011;2256;48.740;9.106;2023-01-05T06:46:53;1.07;;;0.80;;
4486;SDS011;2256;48.740;9.106;2023-01-05T06:49:19;0.90;;;0.90;;
4486;SDS011;2256;48.740;9.106;2023-01-05T06:51:46;3.30;;;0.90;;
4486;SDS011;2256;48.740;9.106;2023-01-05T06:54:13;1.40;;;0.90;;
4486;SDS011;2256;48.740;9.106;2023-01-05T06:56:40;2.20;;;1.10;;
4486;SDS011;2256;48.740;9.106;2023-01-05T06:59:11;0.93;;;0.93;;
4486;SDS011;2256;48.740;9.106;2023-01-05T07:01:38;5.80;;;1.37;;
4486;SDS011;2256;48.740;9.106;2023-01-05T07:04:04;7.47;;;1.20;;
4486;SDS011;2256;48.740;9.106;2023-01-05T07:06:32;11.70;;;1.63;;
4486;SDS011;2256;48.740;9.106;2023-01-05T07:08:59;5.03;;;1.30;;
4486;SDS011;2256;48.740;9.106;2023-01-05T07:11:26;2.90;;;1.60;;
4486;SDS011;2256;48.740;9.106;2023-01-05T07:13:53;4.77;;;1.70;;
4486;SDS011;2256;48.740;9.106;2023-01-05T07:16:21;8.23;;;1.27;;
4486;SDS011;2256;48.740;9.106;2023-01-05T07:18:48;6.63;;;2.63;;
4486;SDS011;2256;48.740;9.106;2023-01-05T07:21:14;12.93;;;1.80;;
4486;SDS011;2256;48.740;9.106;2023-01-05T07:23:41;6.67;;;2.33;;
4486;SDS011;2256;48.740;9.106;2023-01-05T07:26:08;4.70;;;1.37;;
4486;SDS011;2256;48.740;9.106;2023-01-05T07:28:35;4.50;;;1.33;;
4486;SDS011;2256;48.740;9.106;2023-01-05T07:31:03;3.93;;;1.30;;
4486;SDS011;2256;48.740;9.106;2023-01-05T07:33:33;3.17;;;1.20;;
4486;SDS011;2256;48.740;9.106;2023-01-05T07:36:01;5.30;;;1.40;;
4486;SDS011;2256;48.740;9.106;2023-01-05T07:38:28;1.87;;;1.10;;
4486;SDS011;2256;48.740;9.106;2023-01-05T07:40:57;7.30;;;1.37;;
4486;SDS011;2256;48.740;9.106;2023-01-05T07:43:24;5.80;;;1.50;;
4486;SDS011;2256;48.740;9.106;2023-01-05T07:45:55;6.87;;;1.30;;
4486;SDS011;2256;48.740;9.106;2023-01-05T07:48:22;11.97;;;1.40;;
4486;SDS011;2256;48.740;9.106;2023-01-05T07:50:50;2.73;;;1.33;;
4486;SDS011;2256;48.740;9.106;2023-01-05T07:53:17;3.13;;;1.30;;
4486;SDS011;2256;48.740;9.106;2023-01-05T07:55:53;2.57;;;1.33;;
4486;SDS011;2256;48.740;9.106;2023-01-05T07:58:20;3.67;;;1.30;;
4486;SDS011;2256;48.740;9.106;2023-01-05T08:00:47;2.03;;;1.07;;
4486;SDS011;2256;48.740;9.106;2023-01-05T08:03:15;2.80;;;1.27;;
4486;SDS011;2256;48.740;9.106;2023-01-05T08:05:41;5.87;;;1.33;;
4486;SDS011;2256;48.740;9.106;2023-01-05T08:08:09;8.83;;;1.40;;
4486;SDS011;2256;48.740;9.106;2023-01-05T08:10:37;11.70;;;1.60;;
4486;SDS011;2256;48.740;9.106;2023-01-05T08:13:04;2.60;;;1.30;;
4486;SDS011;2256;48.740;9.106;2023-01-05T08:15:49;7.60;;;1.60;;
4486;SDS011;2256;48.740;9.106;2023-01-05T08:18:16;1.77;;;1.20;;
4486;SDS011;2256;48.740;9.106;2023-01-05T08:20:48;2.67;;;1.20;;
4486;SDS011;2256;48.740;9.106;2023-01-05T08:23:17;4.60;;;1.40;;
4486;SDS011;2256;48.740;9.106;2023-01-05T08:25:45;10.50;;;1.77;;
4486;SDS011;2256;48.740;9.106;2023-01-05T08:28:12;8.37;;;1.53;;
4486;SDS011;2256;48.740;9.106;2023-01-05T08:30:38;4.87;;;1.43;;
4486;SDS011;2256;48.740;9.106;2023-01-05T08:33:05;4.50;;;1.40;;
4486;SDS011;2256;48.740;9.106;2023-01-05T08:35:32;5.53;;;1.90;;
4486;SDS011;2256;48.740;9.106;2023-01-05T08:37:59;8.23;;;1.70;;
4486;SDS011;2256;48.740;9.106;2023-01-05T08:40:27;4.73;;;1.50;;
4486;SDS011;2256;48.740;9.106;2023-01-05T08:42:54;10.33;;;2.10;;
4486;SDS011;2256;48.740;9.106;2023-01-05T08:45:22;3.23;;;1.30;;
4486;SDS011;2256;48.740;9.106;2023-01-05T08:47:49;12.23;;;3.20;;
4486;SDS011;2256;48.740;9.106;2023-01-05T08:50:16;8.57;;;1.80;;
4486;SDS011;2256;48.740;9.106;2023-01-05T08:52:43;6.60;;;1.67;;
4486;SDS011;2256;48.740;9.106;2023-01-05T08:55:09;17.30;;;2.00;;
4486;SDS011;2256;48.740;9.106;2023-01-05T08:57:37;10.63;;;1.80;;
4486;SDS011;2256;48.740;9.106;2023-01-05T09:00:05;4.50;;;1.47;;
4486;SDS011;2256;48.740;9.106;2023-01-05T09:02:32;11.43;;;1.90;;
4486;SDS011;2256;48.740;9.106;2023-01-05T09:04:59;10.70;;;2.00;;
4486;SDS011;2256;48.740;9.106;2023-01-05T09:07:26;9.23;;;1.80;;
4486;SDS011;2256;48.740;9.106;2023-01-05T09:09:53;11.90;;;2.20;;
4486;SDS011;2256;48.740;9.106;2023-01-05T09:12:20;8.67;;;2.20;;
4486;SDS011;2256;48.740;9.106;2023-01-05T09:14:48;9.20;;;1.60;;
4486;SDS011;2256;48.740;9.106;2023-01-05T09:17:15;12.03;;;2.30;;
4486;SDS011;2256;48.740;9.106;2023-01-05T09:19:41;12.60;;;1.83;;
4486;SDS011;2256;48.740;9.106;2023-01-05T09:22:08;8.43;;;2.00;;
4486;SDS011;2256;48.740;9.106;2023-01-05T09:24:35;12.53;;;1.90;;
4486;SDS011;2256;48.740;9.106;2023-01-05T09:27:02;12.87;;;2.40;;
4486;SDS011;2256;48.740;9.106;2023-01-05T09:29:31;10.13;;;1.93;;
4486;SDS011;2256;48.740;9.106;2023-01-05T09:32:00;12.40;;;1.90;;
4486;SDS011;2256;48.740;9.106;2023-01-05T09:34:27;9.80;;;3.43;;
4486;SDS011;2256;48.740;9.106;2023-01-05T09:36:54;12.07;;;2.07;;
4486;SDS011;2256;48.740;9.106;2023-01-05T09:39:20;9.90;;;2.13;;
4486;SDS011;2256;48.740;9.106;2023-01-05T09:41:48;9.80;;;2.40;;
4486;SDS011;2256;48.740;9.106;2023-01-05T09:44:21;13.40;;;2.63;;
4486;SDS011;2256;48.740;9.106;2023-01-05T09:46:55;15.23;;;2.13;;
4486;SDS011;2256;48.740;9.106;2023-01-05T09:49:26;9.37;;;2.03;;
4486;SDS011;2256;48.740;9.106;2023-01-05T09:51:56;10.33;;;2.07;;
4486;SDS011;2256;48.740;9.106;2023-01-05T09:54:26;23.10;;;2.80;;
4486;SDS011;2256;48.740;9.106;2023-01-05T09:56:54;9.80;;;2.27;;
4486;SDS011;2256;48.740;9.106;2023-01-05T09:59:23;21.20;;;2.70;;
4486;SDS011;2256;48.740;9.106;2023-01-05T10:01:54;13.40;;;2.33;;
4486;SDS011;2256;48.740;9.106;2023-01-05T10:04:25;21.40;;;2.97;;
4486;SDS011;2256;48.740;9.106;2023-01-05T10:06:56;9.00;;;1.93;;
4486;SDS011;2256;48.740;9.106;2023-01-05T10:09:27;10.83;;;3.40;;
4486;SDS011;2256;48.740;9.106;2023-01-05T10:11:56;12.57;;;2.70;;
4486;SDS011;2256;48.740;9.106;2023-01-05T10:14:45;12.57;;;2.97;;
4486;SDS011;2256;48.740;9.106;2023-01-05T10:17:15;21.07;;;2.63;;
4486;SDS011;2256;48.740;9.106;2023-01-05T10:19:45;14.03;;;2.77;;
4486;SDS011;2256;48.740;9.106;2023-01-05T10:22:20;7.90;;;1.83;;
4486;SDS011;2256;48.740;9.106;2023-01-05T10:24:56;15.70;;;2.93;;
4486;SDS011;2256;48.740;9.106;2023-01-05T10:27:29;15.33;;;1.83;;
4486;SDS011;2256;48.740;9.106;2023-01-05T10:30:04;9.27;;;2.30;;
4486;SDS011;2256;48.740;9.106;2023-01-05T10:32:42;11.83;;;2.00;;
4486;SDS011;2256;48.740;9.106;2023-01-05T10:35:22;8.23;;;2.20;;
4486;SDS011;2256;48.740;9.106;2023-01-05T10:37:59;15.97;;;2.80;;
4486;SDS011;2256;48.740;9.106;2023-01-05T10:40:41;10.30;;;2.00;;
4486;SDS011;2256;48.740;9.106;2023-01-05T10:43:27;17.37;;;2.60;;
4486;SDS011;2256;48.740;9.106;2023-01-05T10:46:06;13.10;;;1.90;;
4486;SDS011;2256;48.740;9.106;2023-01-05T10:48:36;22.77;;;2.03;;
4486;SDS011;2256;48.740;9.106;2023-01-05T10:51:06;10.10;;;2.63;;
4486;SDS011;2256;48.740;9.106;2023-01-05T10:53:34;17.93;;;3.30;;
4486;SDS011;2256;48.740;9.106;2023-01-05T10:56:04;12.73;;;2.33;;
4486;SDS011;2256;48.740;9.106;2023-01-05T10:58:33;12.67;;;2.53;;
4486;SDS011;2256;48.740;9.106;2023-01-05T11:01:03;9.50;;;2.20;;
4486;SDS011;2256;48.740;9.106;2023-01-05T11:03:35;11.40;;;3.20;;
4486;SDS011;2256;48.740;9.106;2023-01-05T11:06:06;18.87;;;2.90;;
4486;SDS011;2256;48.740;9.106;2023-01-05T11:08:34;16.00;;;2.27;;
4486;SDS011;2256;48.740;9.106;2023-01-05T11:11:02;14.37;;;2.37;;
4486;SDS011;2256;48.740;9.106;2023-01-05T11:13:31;15.87;;;2.57;;
4486;SDS011;2256;48.740;9.106;2023-01-05T11:16:01;5.90;;;2.13;;
4486;SDS011;2256;48.740;9.106;2023-01-05T11:18:33;13.43;;;2.10;;
4486;SDS011;2256;48.740;9.106;2023-01-05T11:21:14;8.90;;;2.10;;
4486;SDS011;2256;48.740;9.106;2023-01-05T11:23:43;14.73;;;2.20;;
4486;SDS011;2256;48.740;9.106;2023-01-05T11:26:17;11.63;;;1.97;;
4486;SDS011;2256;48.740;9.106;2023-01-05T11:28:55;17.03;;;3.00;;
4486;SDS011;2256;48.740;9.106;2023-01-05T11:31:24;17.93;;;2.10;;
4486;SDS011;2256;48.740;9.106;2023-01-05T11:33:54;10.80;;;2.30;;
4486;SDS011;2256;48.740;9.106;2023-01-05T11:36:23;13.03;;;2.77;;
4486;SDS011;2256;48.740;9.106;2023-01-05T11:38:50;18.23;;;3.17;;
4486;SDS011;2256;48.740;9.106;2023-01-05T11:41:20;11.10;;;2.63;;
4486;SDS011;2256;48.740;9.106;2023-01-05T11:43:48;11.03;;;2.33;;
4486;SDS011;2256;48.740;9.106;2023-01-05T11:46:16;10.17;;;2.70;;
4486;SDS011;2256;48.740;9.106;2023-01-05T11:48:46;7.00;;;2.27;;
4486;SDS011;2256;48.740;9.106;2023-01-05T11:54:00;19.33;;;2.77;;
4486;SDS011;2256;48.740;9.106;2023-01-05T11:56:27;14.30;;;2.30;;
4486;SDS011;2256;48.740;9.106;2023-01-05T11:58:55;9.27;;;2.37;;
4486;SDS011;2256;48.740;9.106;2023-01-05T12:01:39;9.10;;;2.70;;
4486;SDS011;2256;48.740;9.106;2023-01-05T12:04:21;16.20;;;2.60;;
4486;SDS011;2256;48.740;9.106;2023-01-05T12:07:08;12.60;;;3.20;;
4486;SDS011;2256;48.740;9.106;2023-01-05T12:09:43;16.00;;;1.87;;
4486;SDS011;2256;48.740;9.106;2023-01-05T12:12:22;19.07;;;2.60;;
4486;SDS011;2256;48.740;9.106;2023-01-05T12:14:59;15.50;;;2.80;;
4486;SDS011;2256;48.740;9.106;2023-01-05T12:17:42;14.00;;;2.90;;
4486;SDS011;2256;48.740;9.106;2023-01-05T12:20:31;8.83;;;2.40;;
4486;SDS011;2256;48.740;9.106;2023-01-05T12:23:15;22.40;;;3.00;;
4486;SDS011;2256;48.740;9.106;2023-01-05T12:25:57;24.20;;;2.40;;
4486;SDS011;2256;48.740;9.106;2023-01-05T12:28:32;15.43;;;2.27;;
4486;SDS011;2256;48.740;9.106;2023-01-05T12:31:18;17.43;;;2.30;;
4486;SDS011;2256;48.740;9.106;2023-01-05T12:33:57;14.23;;;2.83;;
4486;SDS011;2256;48.740;9.106;2023-01-05T12:36:37;14.67;;;2.60;;
4486;SDS011;2256;48.740;9.106;2023-01-05T12:39:29;11.73;;;2.30;;
4486;SDS011;2256;48.740;9.106;2023-01-05T12:42:14;11.23;;;2.73;;
4486;SDS011;2256;48.740;9.106;2023-01-05T12:44:56;16.30;;;2.00;;
4486;SDS011;2256;48.740;9.106;2023-01-05T12:47:48;22.70;;;2.67;;
4486;SDS011;2256;48.740;9.106;2023-01-05T12:50:22;15.07;;;3.00;;
4486;SDS011;2256;48.740;9.106;2023-01-05T12:52:55;6.70;;;2.03;;
4486;SDS011;2256;48.740;9.106;2023-01-05T12:55:30;24.57;;;3.10;;
4486;SDS011;2256;48.740;9.106;2023-01-05T12:58:02;23.57;;;3.00;;
4486;SDS011;2256;48.740;9.106;2023-01-05T13:00:34;17.53;;;2.17;;
4486;SDS011;2256;48.740;9.106;2023-01-05T13:03:09;9.70;;;2.30;;
4486;SDS011;2256;48.740;9.106;2023-01-05T13:05:43;20.20;;;2.80;;
4486;SDS011;2256;48.740;9.106;2023-01-05T13:08:17;10.07;;;2.17;;
4486;SDS011;2256;48.740;9.106;2023-01-05T13:10:51;16.33;;;2.03;;
4486;SDS011;2256;48.740;9.106;2023-01-05T13:13:23;15.47;;;2.93;;
4486;SDS011;2256;48.740;9.106;2023-01-05T13:15:56;10.83;;;2.57;;
4486;SDS011;2256;48.740;9.106;2023-01-05T13:18:27;21.70;;;3.20;;
4486;SDS011;2256;48.740;9.106;2023-01-05T13:20:58;12.17;;;2.50;;
4486;SDS011;2256;48.740;9.106;2023-01-05T13:23:27;23.60;;;3.13;;
4486;SDS011;2256;48.740;9.106;2023-01-05T13:25:59;16.37;;;2.63;;
4486;SDS011;2256;48.740;9.106;2023-01-05T13:28:29;12.03;;;2.70;;
4486;SDS011;2256;48.740;9.106;2023-01-05T13:31:10;20.90;;;3.37;;
4486;SDS011;2256;48.740;9.106;2023-01-05T13:34:03;11.23;;;3.23;;
4486;SDS011;2256;48.740;9.106;2023-01-05T13:36:46;14.83;;;4.07;;
4486;SDS011;2256;48.740;9.106;2023-01-05T13:39:41;20.43;;;3.40;;
4486;SDS011;2256;48.740;9.106;2023-01-05T13:42:24;20.83;;;3.50;;
4486;SDS011;2256;48.740;9.106;2023-01-05T13:45:10;11.30;;;2.60;;
4486;SDS011;2256;48.740;9.106;2023-01-05T13:47:53;13.83;;;3.10;;
4486;SDS011;2256;48.740;9.106;2023-01-05T13:50:38;19.93;;;3.07;;
4486;SDS011;2256;48.740;9.106;2023-01-05T13:53:30;20.43;;;2.80;;
4486;SDS011;2256;48.740;9.106;2023-01-05T13:56:03;17.00;;;3.60;;
4486;SDS011;2256;48.740;9.106;2023-01-05T13:58:38;17.97;;;3.20;;
4486;SDS011;2256;48.740;9.106;2023-01-05T14:01:08;22.87;;;3.20;;
4486;SDS011;2256;48.740;9.106;2023-01-05T14:03:47;16.03;;;2.60;;
4486;SDS011;2256;48.740;9.106;2023-01-05T14:06:17;16.63;;;3.13;;
4486;SDS011;2256;48.740;9.106;2023-01-05T14:08:52;20.83;;;3.27;;
4486;SDS011;2256;48.740;9.106;2023-01-05T14:11:23;15.30;;;2.47;;
4486;SDS011;2256;48.740;9.106;2023-01-05T14:13:53;11.17;;;3.20;;
4486;SDS011;2256;48.740;9.106;2023-01-05T14:19:20;15.20;;;2.97;;
4486;SDS011;2256;48.740;9.106;2023-01-05T14:22:32;12.90;;;2.50;;
4486;SDS011;2256;48.740;9.106;2023-01-05T14:34:15;21.83;;;3.40;;
4486;SDS011;2256;48.740;9.106;2023-01-05T14:36:46;15.33;;;2.73;;
4486;SDS011;2256;48.740;9.106;2023-01-05T14:39:27;13.27;;;2.83;;
4486;SDS011;2256;48.740;9.106;2023-01-05T14:41:58;16.80;;;3.07;;
4486;SDS011;2256;48.740;9.106;2023-01-05T14:44:28;12.07;;;2.90;;
4486;SDS011;2256;48.740;9.106;2023-01-05T14:47:00;19.70;;;2.67;;
4486;SDS011;2256;48.740;9.106;2023-01-05T14:49:30;25.23;;;4.17;;
4486;SDS011;2256;48.740;9.106;2023-01-05T14:51:59;16.47;;;3.27;;
4486;SDS011;2256;48.740;9.106;2023-01-05T14:54:34;25.53;;;3.13;;
4486;SDS011;2256;48.740;9.106;2023-01-05T14:57:36;26.20;;;3.40;;
4486;SDS011;2256;48.740;9.106;2023-01-05T15:00:06;13.73;;;2.27;;
4486;SDS011;2256;48.740;9.106;2023-01-05T15:05:26;15.00;;;3.30;;
4486;SDS011;2256;48.740;9.106;2023-01-05T15:07:58;16.77;;;2.73;;
4486;SDS011;2256;48.740;9.106;2023-01-05T15:17:01;15.97;;;3.07;;
4486;SDS011;2256;48.740;9.106;2023-01-05T15:19:57;8.57;;;2.70;;
4486;SDS011;2256;48.740;9.106;2023-01-05T15:22:54;10.97;;;2.30;;
4486;SDS011;2256;48.740;9.106;2023-01-05T15:25:44;15.10;;;2.80;;
4486;SDS011;2256;48.740;9.106;2023-01-05T15:28:39;13.60;;;2.93;;
4486;SDS011;2256;48.740;9.106;2023-01-05T15:34:05;15.30;;;2.83;;
4486;SDS011;2256;48.740;9.106;2023-01-05T15:36:45;10.70;;;3.00;;
4486;SDS011;2256;48.740;9.106;2023-01-05T15:39:23;19.07;;;3.10;;
4486;SDS011;2256;48.740;9.106;2023-01-05T15:41:52;12.93;;;2.70;;
4486;SDS011;2256;48.740;9.106;2023-01-05T15:44:21;10.93;;;2.77;;
4486;SDS011;2256;48.740;9.106;2023-01-05T15:46:49;16.80;;;3.27;;
4486;SDS011;2256;48.740;9.106;2023-01-05T15:49:20;12.70;;;3.40;;
4486;SDS011;2256;48.740;9.106;2023-01-05T15:51:51;11.53;;;3.30;;
4486;SDS011;2256;48.740;9.106;2023-01-05T15:54:20;10.53;;;2.30;;
4486;SDS011;2256;48.740;9.106;2023-01-05T15:56:49;20.53;;;3.57;;
4486;SDS011;2256;48.740;9.106;2023-01-05T15:59:20;12.17;;;2.93;;
4486;SDS011;2256;48.740;9.106;2023-01-05T16:01:48;18.17;;;3.40;;
4486;SDS011;2256;48.740;9.106;2023-01-05T16:04:15;14.10;;;2.63;;